Songa Calabria — D5OE7 — position and weather

sailwx.info

Track history (hours):
 
Tides and Currents Weather Stations Pressure Air Temp Water Temp Dewpoint Dewpoint Depression Visibility Wind Speed Wind Dir Waves Ship Positions

Songa Calabria

Last reported at 2018-Feb-20 15:25 UTC. Time now 2018-Feb-20 15:41 UTC.
Position N 37°24' E 023°46'.

Length 261 m; draft 11.6 m.

Type: Ship (hazmat cat A). MMSI: 636018105.

Date/timePositionNaut miles runAvg speedWind from/ knotsBaromVisibWave heightAir tempDewpointWater temp
2018-Feb-20 15:25N 37°24' E 023°46'512.4
2018-Feb-20 15:00N 37°30' E 023°46'612.3
2018-Feb-20 14:30N 37°36' E 023°45'612.1
2018-Feb-20 14:00N 37°41' E 023°42'612.1
2018-Feb-20 13:30N 37°46' E 023°38'611.8
2018-Feb-20 13:00N 37°52' E 023°37'5 9.2
2018-Feb-20 12:30N 37°57' E 023°36'1 1.4
2018-Feb-20 12:00N 37°57' E 023°35'0 0.0
2018-Feb-20 11:30N 37°57' E 023°35'0 0.0
2018-Feb-20 11:00N 37°57' E 023°35'0 0.0
2018-Feb-20 10:30N 37°57' E 023°35'0 0.0
2018-Feb-20 10:00N 37°57' E 023°35'0 0.0
2018-Feb-20 09:30N 37°57' E 023°35'0 0.0
2018-Feb-20 09:00N 37°57' E 023°35'0 0.0
2018-Feb-20 08:30N 37°57' E 023°35'0 0.0
2018-Feb-20 08:00N 37°57' E 023°35'0 0.0
2018-Feb-20 07:30N 37°57' E 023°35'0 0.0
2018-Feb-20 07:00N 37°57' E 023°35'0 0.0
2018-Feb-20 06:30N 37°57' E 023°35'0 0.0
2018-Feb-20 06:00N 37°57' E 023°35'0 0.0
2018-Feb-20 05:30N 37°57' E 023°35'0 0.0
2018-Feb-20 05:00N 37°57' E 023°35'0 0.0
2018-Feb-20 04:30N 37°57' E 023°35'0 0.0
2018-Feb-20 04:00N 37°57' E 023°35'0 0.0
2018-Feb-20 03:30N 37°57' E 023°35'0 0.0
2018-Feb-20 03:00N 37°57' E 023°35'0 0.0
2018-Feb-20 02:30N 37°57' E 023°35'0 0.0
2018-Feb-20 02:00N 37°57' E 023°35'0 0.0
2018-Feb-20 01:30N 37°57' E 023°35'0 0.0
2018-Feb-20 01:00N 37°57' E 023°35'0 0.0
2018-Feb-20 00:30N 37°57' E 023°35'0 0.0
2018-Feb-20 00:00N 37°57' E 023°35'0 0.0
2018-Feb-19 23:31N 37°57' E 023°35'0 0.0
2018-Feb-19 23:00N 37°57' E 023°35'0 0.1
2018-Feb-19 22:30N 37°57' E 023°35'2 4.7
2018-Feb-19 22:01N 37°55' E 023°35'1 2.5
2018-Feb-19 21:30N 37°54' E 023°35'1 1.3
2018-Feb-19 21:00N 37°54' E 023°36'1 1.0
2018-Feb-19 20:30N 37°54' E 023°36'2 3.9
2018-Feb-19 20:00N 37°53' E 023°38'2 3.3
2018-Feb-19 19:30N 37°51' E 023°39'713.4
2018-Feb-19 19:01N 37°45' E 023°42'816.0
2018-Feb-19 18:31N 37°38' E 023°48'1217.2
2018-Feb-19 17:50N 37°30' E 023°58'  
Track history (hours):
 
Tides and Currents Weather Stations Pressure Air Temp Water Temp Dewpoint Dewpoint Depression Visibility Wind Speed Wind Dir Waves Ship Positions

Songa Calabria

Last reported at 2018-Feb-20 15:25 UTC. Time now 2018-Feb-20 15:41 UTC.
Position N 37°24' E 023°46'.

Length 261 m; draft 11.6 m.

Type: Ship (hazmat cat A). MMSI: 636018105.

Date/timePositionNaut miles runAvg speedWind from/ knotsBaromVisibWave heightAir tempDewpointWater temp
2018-Feb-20 15:25N 37°24' E 023°46'512.4
2018-Feb-20 15:00N 37°30' E 023°46'612.3
2018-Feb-20 14:30N 37°36' E 023°45'612.1
2018-Feb-20 14:00N 37°41' E 023°42'612.1
2018-Feb-20 13:30N 37°46' E 023°38'611.8
2018-Feb-20 13:00N 37°52' E 023°37'5 9.2
2018-Feb-20 12:30N 37°57' E 023°36'1 1.4
2018-Feb-20 12:00N 37°57' E 023°35'0 0.0
2018-Feb-20 11:30N 37°57' E 023°35'0 0.0
2018-Feb-20 11:00N 37°57' E 023°35'0 0.0
2018-Feb-20 10:30N 37°57' E 023°35'0 0.0
2018-Feb-20 10:00N 37°57' E 023°35'0 0.0
2018-Feb-20 09:30N 37°57' E 023°35'0 0.0
2018-Feb-20 09:00N 37°57' E 023°35'0 0.0
2018-Feb-20 08:30N 37°57' E 023°35'0 0.0
2018-Feb-20 08:00N 37°57' E 023°35'0 0.0
2018-Feb-20 07:30N 37°57' E 023°35'0 0.0
2018-Feb-20 07:00N 37°57' E 023°35'0 0.0
2018-Feb-20 06:30N 37°57' E 023°35'0 0.0
2018-Feb-20 06:00N 37°57' E 023°35'0 0.0
2018-Feb-20 05:30N 37°57' E 023°35'0 0.0
2018-Feb-20 05:00N 37°57' E 023°35'0 0.0
2018-Feb-20 04:30N 37°57' E 023°35'0 0.0
2018-Feb-20 04:00N 37°57' E 023°35'0 0.0
2018-Feb-20 03:30N 37°57' E 023°35'0 0.0
2018-Feb-20 03:00N 37°57' E 023°35'0 0.0
2018-Feb-20 02:30N 37°57' E 023°35'0 0.0
2018-Feb-20 02:00N 37°57' E 023°35'0 0.0
2018-Feb-20 01:30N 37°57' E 023°35'0 0.0
2018-Feb-20 01:00N 37°57' E 023°35'0 0.0
2018-Feb-20 00:30N 37°57' E 023°35'0 0.0
2018-Feb-20 00:00N 37°57' E 023°35'0 0.0
2018-Feb-19 23:31N 37°57' E 023°35'0 0.0
2018-Feb-19 23:00N 37°57' E 023°35'0 0.1
2018-Feb-19 22:30N 37°57' E 023°35'2 4.7
2018-Feb-19 22:01N 37°55' E 023°35'1 2.5
2018-Feb-19 21:30N 37°54' E 023°35'1 1.3
2018-Feb-19 21:00N 37°54' E 023°36'1 1.0
2018-Feb-19 20:30N 37°54' E 023°36'2 3.9
2018-Feb-19 20:00N 37°53' E 023°38'2 3.3
2018-Feb-19 19:30N 37°51' E 023°39'713.4
2018-Feb-19 19:01N 37°45' E 023°42'816.0
2018-Feb-19 18:31N 37°38' E 023°48'1217.2
2018-Feb-19 17:50N 37°30' E 023°58'  

Dump ship's entire track history